Time;durP1;ratioP1;P1;durP2;ratioP2;P2;SDS_P1;SDS_P2;PMS_P1;PMS_P2;Temp;Humidity;BMP_temperature;BMP_pressure;BME280_temperature;BME280_humidity;BME280_pressure;Samples;Min_cycle;Max_cycle;Signal;HPM_P1;HPM_P2
2022/10/07 00:00:29;;;;;;;17.38;5.65;;;;;;;8.25;100.00;102506.53;1970533;28;20458;-75
2022/10/07 00:01:27;;;;;;;21.85;5.90;;;;;;;8.27;100.00;102492.66;1970404;28;20550;-76
2022/10/07 00:02:24;;;;;;;19.00;5.82;;;;;;;8.22;100.00;102493.53;1970652;28;20040;-76
2022/10/07 00:03:25;;;;;;;18.20;5.10;;;;;;;8.24;100.00;102490.94;1970533;28;20403;-77
2022/10/07 00:04:22;;;;;;;14.18;5.43;;;;;;;8.24;100.00;102490.94;1970587;28;20051;-78
2022/10/07 00:05:20;;;;;;;14.85;5.82;;;;;;;8.20;100.00;102491.81;1970500;28;20048;-76
2022/10/07 00:06:21;;;;;;;17.92;5.68;;;;;;;8.19;100.00;102493.59;1970625;28;20044;-77
2022/10/07 00:07:18;;;;;;;18.10;5.85;;;;;;;8.19;100.00;102493.59;1970475;28;20069;-75
2022/10/07 00:08:15;;;;;;;18.70;5.10;;;;;;;8.18;100.00;102486.63;1970500;28;20040;-75
2022/10/07 00:09:13;;;;;;;19.45;5.43;;;;;;;8.15;100.00;102491.88;1962091;28;20060;-76
2022/10/07 00:10:11;;;;;;;19.13;5.15;;;;;;;8.14;100.00;102484.09;1962215;28;20030;-77
2022/10/07 00:11:11;;;;;;;22.88;5.57;;;;;;;8.15;100.00;102488.41;1969584;28;20113;-76
2022/10/07 00:12:08;;;;;;;;;;;;;;;8.09;100.00;102486.69;1970763;28;20050;-77
2022/10/07 00:13:08;;;;;;;20.08;5.50;;;;;;;8.06;100.00;102486.72;1970623;28;20002;-76
2022/10/07 00:14:06;;;;;;;19.80;4.97;;;;;;;8.21;100.00;102486.63;1970440;28;20034;-76
2022/10/07 00:15:04;;;;;;;15.13;4.93;;;;;;;8.15;100.00;102486.69;1962153;28;20042;-76
2022/10/07 00:16:06;;;;;;;16.73;5.65;;;;;;;8.21;100.00;102486.63;1962138;28;20037;-77
2022/10/07 00:17:03;;;;;;;20.70;5.13;;;;;;;8.22;100.00;102483.13;1970365;28;20052;-76
2022/10/07 00:18:01;;;;;;;21.13;5.45;;;;;;;8.22;100.00;102479.69;1969968;28;20040;-77
2022/10/07 00:19:02;;;;;;;20.52;5.28;;;;;;;8.27;100.00;102482.25;1960356;28;20085;-79
2022/10/07 00:20:00;;;;;;;20.05;5.28;;;;;;;8.28;100.00;102481.41;1961979;28;20117;-76
2022/10/07 00:21:13;;;;;;;16.92;5.35;;;;;;;8.25;100.00;102480.53;1970131;28;20026;-77
2022/10/07 00:22:10;;;;;;;18.10;5.13;;;;;;;8.21;100.00;102485.78;1970312;28;20049;-76
2022/10/07 00:23:08;;;;;;;20.10;5.50;;;;;;;8.19;100.00;102480.59;1970444;28;20474;-76
2022/10/07 00:24:07;;;;;;;19.52;5.70;;;;;;;8.19;100.00;102482.31;1970331;28;20545;-77
2022/10/07 00:25:05;;;;;;;20.67;5.40;;;;;;;8.15;100.00;102476.28;1970332;28;20036;-76
2022/10/07 00:26:07;;;;;;;15.82;5.18;;;;;;;8.17;100.00;102484.91;1970154;28;20051;-77
2022/10/07 00:27:04;;;;;;;19.35;5.43;;;;;;;8.18;100.00;102478.84;1970347;28;20626;-76
2022/10/07 00:28:03;;;;;;;15.38;4.97;;;;;;;8.16;100.00;102471.91;1970278;28;20029;-78
2022/10/07 00:29:02;;;;;;;22.48;5.60;;;;;;;8.14;100.00;102474.53;1961909;28;20041;-78
2022/10/07 00:30:00;;;;;;;19.25;5.32;;;;;;;8.12;100.00;102477.13;1962056;28;20070;-77
2022/10/07 00:31:04;;;;;;;16.40;5.20;;;;;;;8.15;100.00;102475.41;1969627;28;20428;-77
2022/10/07 00:32:01;;;;;;;20.08;5.57;;;;;;;8.15;100.00;102475.41;1970198;28;20034;-77
2022/10/07 00:32:59;;;;;;;22.02;5.28;;;;;;;8.16;100.00;102472.78;1970290;28;20064;-78
2022/10/07 00:33:58;;;;;;;16.48;5.43;;;;;;;8.14;100.00;102476.28;1970259;28;20047;-75
2022/10/07 00:34:55;;;;;;;13.73;4.90;;;;;;;8.19;100.00;102471.91;1970244;28;20481;-77
2022/10/07 00:35:52;;;;;;;19.23;5.07;;;;;;;8.19;100.00;102471.91;1970242;28;20021;-76
2022/10/07 00:36:50;;;;;;;14.57;5.75;;;;;;;8.16;100.00;102465.00;1970222;28;20040;-77
2022/10/07 00:37:47;;;;;;;21.13;5.47;;;;;;;8.15;100.00;102468.47;1970307;28;20063;-77
2022/10/07 00:38:57;;;;;;;18.75;5.00;;;;;;;8.14;100.00;102469.31;1970266;28;20033;-76
2022/10/07 00:39:54;;;;;;;15.73;5.10;;;;;;;8.17;100.00;102464.09;1970189;28;20034;-80
2022/10/07 00:40:51;;;;;;;20.08;5.15;;;;;;;8.12;100.00;102464.13;1970073;28;20042;-77
2022/10/07 00:41:51;;;;;;;16.42;4.78;;;;;;;8.14;100.00;102458.91;1970175;28;20065;-79
2022/10/07 00:42:49;;;;;;;15.02;5.25;;;;;;;8.15;100.00;102460.66;1970278;28;20711;-78
2022/10/07 00:43:47;;;;;;;16.00;5.05;;;;;;;8.09;100.00;102463.28;1969896;28;20080;-76
2022/10/07 00:44:47;;;;;;;15.57;5.40;;;;;;;8.08;100.00;102464.19;1970169;28;20485;-77
2022/10/07 00:45:44;;;;;;;16.45;5.63;;;;;;;8.02;100.00;102459.00;1970173;28;20567;-77
2022/10/07 00:46:42;;;;;;;13.43;4.88;;;;;;;7.98;100.00;102464.22;1961912;28;20174;-77
2022/10/07 00:47:45;;;;;;;17.77;5.55;;;;;;;7.95;100.00;102452.97;1954201;28;20066;-75
2022/10/07 00:48:45;;;;;;;16.73;4.85;;;;;;;7.95;100.00;102456.44;1959496;28;20036;-76
2022/10/07 00:49:56;;;;;;;15.25;5.30;;;;;;;7.91;100.00;102457.34;1970130;28;20445;-75
2022/10/07 00:50:58;;;;;;;21.42;5.90;;;;;;;7.87;100.00;102453.00;1970144;28;20042;-79
2022/10/07 00:51:57;;;;;;;21.65;5.75;;;;;;;7.89;100.00;102453.88;1970063;28;20038;-76
2022/10/07 00:53:00;;;;;;;13.82;4.85;;;;;;;7.89;100.00;102448.66;1961861;28;20026;-79
2022/10/07 00:54:01;;;;;;;18.92;5.47;;;;;;;7.85;100.00;102454.75;1961723;28;20030;-78
2022/10/07 00:55:06;;;;;;;19.50;5.43;;;;;;;7.88;100.00;102451.28;1969310;28;20030;-76
2022/10/07 00:56:06;;;;;;;14.75;4.93;;;;;;;7.90;100.00;102446.94;1969939;28;20042;-79
2022/10/07 00:57:04;;;;;;;18.05;5.32;;;;;;;7.85;100.00;102450.44;1970174;28;20421;-76
2022/10/07 00:58:08;;;;;;;19.20;5.30;;;;;;;7.86;100.00;102448.69;1961684;28;20038;-77
2022/10/07 00:59:06;;;;;;;20.02;5.13;;;;;;;7.90;100.00;102449.53;1961887;28;20026;-77
2022/10/07 01:00:06;;;;;;;16.23;5.57;;;;;;;7.82;100.00;102447.84;1961790;28;20038;-67
2022/10/07 01:01:04;;;;;;;21.30;5.57;;;;;;;7.81;100.00;102442.66;1961771;28;20037;-67
2022/10/07 01:02:02;;;;;;;15.70;5.43;;;;;;;7.79;100.00;102434.84;1969450;28;20397;-67
2022/10/07 01:03:00;;;;;;;18.27;5.60;;;;;;;7.78;100.00;102438.34;1970079;28;20545;-68
2022/10/07 01:03:58;;;;;;;14.82;5.65;;;;;;;7.79;100.00;102434.84;1969992;28;20034;-69
2022/10/07 01:05:00;;;;;;;20.27;5.35;;;;;;;7.82;100.00;102440.06;1961655;28;20034;-70
2022/10/07 01:05:57;;;;;;;21.52;5.90;;;;;;;7.76;100.00;102437.47;1961638;28;20513;-68
2022/10/07 01:06:55;;;;;;;17.27;5.28;;;;;;;7.77;100.00;102433.97;1969697;28;20053;-67
2022/10/07 01:07:53;;;;;;;25.85;5.47;;;;;;;7.77;100.00;102439.19;1969951;28;20393;-67
2022/10/07 01:08:53;;;;;;;16.73;5.75;;;;;;;7.79;100.00;102431.38;1969792;28;20068;-67
2022/10/07 01:09:53;;;;;;;15.40;5.30;;;;;;;7.81;100.00;102437.44;1969931;28;20029;-67
2022/10/07 01:11:29;;;;;;;18.77;5.43;;;;;;;7.74;100.00;102434.03;1969764;28;20065;-68
2022/10/07 01:12:48;;;;;;;18.30;5.30;;;;;;;7.66;100.00;102431.44;1969901;28;20523;-68
2022/10/07 01:14:11;;;;;;;20.85;5.60;;;;;;;7.63;100.00;102433.22;1969981;28;20116;-68
2022/10/07 01:15:34;;;;;;;17.38;5.28;;;;;;;7.68;100.00;102428.84;1969997;28;20037;-70
2022/10/07 01:17:20;;;;;;;20.33;5.50;;;;;;;7.63;100.00;102421.06;1953529;28;20043;-69
2022/10/07 01:18:37;;;;;;;11.73;5.05;;;;;;;7.57;100.00;102427.16;1967430;28;20038;-66
2022/10/07 01:20:10;;;;;;;24.38;5.47;;;;;;;7.53;100.00;102419.41;1969944;28;20043;-67
2022/10/07 01:22:04;;;;;;;12.18;5.10;;;;;;;7.59;100.00;102417.63;1969820;28;20121;-69
2022/10/07 01:23:39;;;;;;;19.05;5.10;;;;;;;7.54;100.00;102416.78;1953959;28;20034;-68
2022/10/07 01:24:54;;;;;;;16.88;5.47;;;;;;;7.57;100.00;102415.91;1969897;28;20045;-66
2022/10/07 01:26:09;;;;;;;17.20;5.93;;;;;;;7.60;100.00;102413.31;1969750;28;20481;-67
2022/10/07 01:27:18;;;;;;;10.77;5.22;;;;;;;7.68;100.00;102413.25;1969815;28;20048;-68
2022/10/07 01:28:25;;;;;;;20.63;6.30;;;;;;;7.62;100.00;102414.16;1961620;28;20045;-65
2022/10/07 01:29:54;;;;;;;17.25;5.80;;;;;;;7.63;100.00;102415.03;1962046;28;20128;-66
2022/10/07 01:30:59;;;;;;;19.50;5.88;;;;;;;7.63;100.00;102410.66;1969761;28;20040;-67
2022/10/07 01:32:08;;;;;;;22.20;6.55;;;;;;;7.67;100.00;102412.38;1969836;28;20029;-67
2022/10/07 01:33:20;;;;;;;21.27;6.07;;;;;;;7.71;100.00;102408.94;1969745;28;20040;-66
2022/10/07 01:34:22;;;;;;;19.83;5.95;;;;;;;7.65;100.00;102413.25;1969786;28;20044;-66
2022/10/07 01:35:26;;;;;;;24.17;6.65;;;;;;;7.64;100.00;102412.41;1969757;28;20113;-67
2022/10/07 01:36:25;;;;;;;17.15;5.65;;;;;;;7.65;100.00;102408.94;1969785;28;20098;-68
2022/10/07 01:37:28;;;;;;;26.80;6.95;;;;;;;7.63;100.00;102400.28;1969751;28;20076;-77
2022/10/07 01:38:30;;;;;;;25.15;7.03;;;;;;;7.60;100.00;102395.13;1969788;28;20041;-78
2022/10/07 01:39:37;;;;;;;17.02;5.75;;;;;;;7.58;100.00;102400.31;1969783;28;20026;-77
2022/10/07 01:40:47;;;;;;;19.00;6.18;;;;;;;7.61;100.00;102396.84;1961533;28;20085;-77
2022/10/07 01:41:45;;;;;;;21.15;6.43;;;;;;;7.56;100.00;102393.41;1962295;28;20085;-78
2022/10/07 01:42:45;;;;;;;17.60;6.07;;;;;;;7.57;100.00;102392.53;1969835;28;20065;-77
2022/10/07 01:43:45;;;;;;;22.83;6.72;;;;;;;7.53;100.00;102390.81;1961282;28;20050;-77
2022/10/07 01:44:47;;;;;;;25.40;6.93;;;;;;;7.53;100.00;102390.81;1961458;28;20045;-78
2022/10/07 01:45:47;;;;;;;19.35;6.43;;;;;;;7.56;100.00;102383.84;1969706;28;20038;-76
2022/10/07 01:46:46;;;;;;;21.40;6.95;;;;;;;7.53;100.00;102383.88;1969797;28;20037;-77
2022/10/07 01:47:44;;;;;;;27.33;7.38;;;;;;;7.54;100.00;102382.16;1969718;28;20247;-75
2022/10/07 01:48:45;;;;;;;21.92;6.47;;;;;;;7.55;100.00;102374.34;1967510;28;20118;-68
2022/10/07 01:49:42;;;;;;;21.42;6.28;;;;;;;7.58;100.00;102376.06;1969634;28;20126;-67
2022/10/07 01:50:40;;;;;;;23.50;6.47;;;;;;;7.54;100.00;102374.34;1969727;28;20049;-68
2022/10/07 01:51:41;;;;;;;17.05;6.60;;;;;;;7.53;100.00;102372.63;1969730;28;20073;-68
2022/10/07 01:52:50;;;;;;;25.17;6.45;;;;;;;7.55;100.00;102371.75;1961291;28;20040;-77
2022/10/07 01:54:05;;;;;;;19.60;6.43;;;;;;;7.54;100.00;102369.16;1962230;28;20120;-75
2022/10/07 01:55:39;;;;;;;16.98;5.95;;;;;;;7.57;100.00;102370.00;1969823;28;20030;-78
2022/10/07 01:57:11;;;;;;;22.60;6.70;;;;;;;7.59;100.00;102368.25;1969741;28;20240;-74
2022/10/07 01:58:52;;;;;;;15.18;5.53;;;;;;;7.63;100.00;102363.91;1969643;28;20073;-78
2022/10/07 02:00:07;;;;;;;20.15;5.93;;;;;;;7.59;100.00;102357.88;1969622;28;20030;-77
2022/10/07 02:01:19;;;;;;;17.83;6.10;;;;;;;7.56;100.00;102352.69;1969763;28;20025;-75
2022/10/07 02:02:42;;;;;;;17.23;6.15;;;;;;;7.55;100.00;102355.28;1969658;28;20080;-73
2022/10/07 02:04:10;;;;;;;15.43;6.13;;;;;;;7.56;100.00;102352.69;1969848;28;20551;-78
2022/10/07 02:05:19;;;;;;;20.38;6.72;;;;;;;7.53;100.00;102351.84;1969572;28;20052;-76
2022/10/07 02:06:50;;;;;;;19.00;6.35;;;;;;;7.56;100.00;102351.84;1969346;28;20060;-79
2022/10/07 02:08:10;;;;;;;;;;;;;;;7.51;100.00;102343.19;1970108;28;20080;-76
2022/10/07 02:09:42;;;;;;;14.70;6.20;;;;;;;7.51;100.00;102350.97;1969499;28;19917;-75
2022/10/07 02:11:14;;;;;;;16.67;6.32;;;;;;;7.45;100.00;102350.16;1969554;28;20037;-77
2022/10/07 02:12:29;;;;;;;18.27;6.00;;;;;;;7.43;100.00;102346.69;1969698;28;20050;-77
2022/10/07 02:14:00;;;;;;;18.38;5.72;;;;;;;7.42;100.00;102350.16;1969570;28;20042;-75
2022/10/07 02:15:12;;;;;;;;;;;;;;;7.45;100.00;102342.34;1970037;28;20054;-75
2022/10/07 02:16:25;;;;;;;16.98;5.70;;;;;;;7.46;100.00;102346.66;1969590;28;19920;-68
2022/10/07 02:17:26;;;;;;;17.92;5.78;;;;;;;7.44;100.00;102343.25;1969585;28;20034;-64
2022/10/07 02:18:30;;;;;;;25.40;6.43;;;;;;;7.43;100.00;102335.44;1967271;28;20052;-68
2022/10/07 02:19:35;;;;;;;20.02;6.00;;;;;;;7.44;100.00;102340.63;1969558;28;20044;-68
2022/10/07 02:20:37;;;;;;;15.55;5.57;;;;;;;7.44;100.00;102343.25;1969591;28;20121;-66
2022/10/07 02:21:38;;;;;;;16.77;6.38;;;;;;;7.45;100.00;102339.75;1969454;28;20124;-67
2022/10/07 02:22:39;;;;;;;18.95;6.07;;;;;;;7.44;100.00;102337.16;1969682;28;20033;-63
2022/10/07 02:23:46;;;;;;;23.05;6.15;;;;;;;7.48;100.00;102333.69;1969572;28;20043;-65
2022/10/07 02:24:46;;;;;;;27.40;7.10;;;;;;;7.47;100.00;102332.81;1969585;28;20034;-64
2022/10/07 02:25:54;;;;;;;19.88;6.10;;;;;;;7.49;100.00;102329.34;1969539;28;20034;-65
2022/10/07 02:26:55;;;;;;;23.42;6.65;;;;;;;7.46;100.00;102331.09;1961055;28;20039;-68
2022/10/07 02:27:55;;;;;;;20.88;5.75;;;;;;;7.48;100.00;102333.69;1961273;28;20026;-68
2022/10/07 02:28:57;;;;;;;19.50;6.30;;;;;;;7.44;100.00;102329.38;1961814;28;20035;-68
2022/10/07 02:30:03;;;;;;;19.85;6.50;;;;;;;7.42;100.00;102326.78;1961746;28;20040;-67
2022/10/07 02:31:03;;;;;;;21.33;6.65;;;;;;;7.40;100.00;102330.25;1961193;28;20096;-66
2022/10/07 02:32:08;;;;;;;24.67;7.15;;;;;;;7.38;100.00;102319.88;1961213;28;20478;-68
2022/10/07 02:33:08;;;;;;;18.42;6.60;;;;;;;7.35;100.00;102325.06;1961829;28;20548;-67
2022/10/07 02:34:14;;;;;;;19.35;6.13;;;;;;;7.41;100.00;102322.47;1962094;28;20432;-71
2022/10/07 02:35:31;;;;;;;22.02;6.55;;;;;;;7.42;100.00;102323.31;1961997;28;20388;-77
2022/10/07 02:36:34;;;;;;;20.40;6.22;;;;;;;7.44;100.00;102321.59;1961863;28;20504;-75
2022/10/07 02:37:36;;;;;;;15.88;5.93;;;;;;;7.44;100.00;102317.25;1961841;28;20034;-77
2022/10/07 02:38:34;;;;;;;21.50;6.80;;;;;;;7.42;100.00;102316.38;1961221;28;20129;-77
2022/10/07 02:39:32;;;;;;;21.50;6.63;;;;;;;7.42;100.00;102318.13;1961270;28;20039;-76
2022/10/07 02:40:41;;;;;;;21.65;6.38;;;;;;;7.41;100.00;102317.28;1961872;28;20049;-73
2022/10/07 02:41:52;;;;;;;22.33;7.20;;;;;;;7.39;100.00;102315.56;1961210;28;20042;-75
2022/10/07 02:43:06;;;;;;;16.98;6.10;;;;;;;7.33;100.00;102311.25;1961459;28;20042;-77
2022/10/07 02:45:22;;;;;;;17.13;6.47;;;;;;;7.28;100.00;102316.47;1969217;28;20038;-80
2022/10/07 02:46:29;;;;;;;21.75;6.22;;;;;;;7.25;100.00;102313.88;1937784;29;20050;-75
2022/10/07 02:47:39;;;;;;;26.30;7.50;;;;;;;7.25;100.00;102305.25;1949872;28;20143;-77
2022/10/07 02:48:55;;;;;;;28.52;6.95;;;;;;;7.23;100.00;102302.66;1967053;28;20081;-79
2022/10/07 02:49:56;;;;;;;20.58;6.60;;;;;;;7.20;100.00;102303.53;1969539;28;20030;-75
2022/10/07 02:51:02;;;;;;;26.48;7.00;;;;;;;7.19;100.00;102301.78;1969410;28;20040;-76
2022/10/07 02:52:15;;;;;;;18.55;6.50;;;;;;;7.18;100.00;102305.25;1969533;28;20026;-77
2022/10/07 02:53:15;;;;;;;17.42;7.20;;;;;;;7.18;100.00;102305.25;1969497;28;20560;-74
2022/10/07 02:54:23;;;;;;;18.48;6.47;;;;;;;7.17;100.00;102298.34;1961219;28;20458;-75
2022/10/07 02:55:24;;;;;;;16.70;7.00;;;;;;;7.12;100.00;102300.09;1960897;28;20038;-76
2022/10/07 02:56:26;;;;;;;21.83;7.07;;;;;;;7.12;100.00;102300.09;1961236;28;20069;-77
2022/10/07 02:57:26;;;;;;;24.23;6.93;;;;;;;7.13;100.00;102296.63;1969260;28;20048;-78
2022/10/07 02:58:25;;;;;;;21.80;7.05;;;;;;;7.09;100.00;102297.53;1969480;28;20117;-77
2022/10/07 02:59:24;;;;;;;20.88;7.22;;;;;;;7.11;100.00;102297.53;1969409;28;20045;-75
2022/10/07 03:00:22;;;;;;;23.50;7.32;;;;;;;7.09;100.00;102292.34;1969441;28;20130;-76
2022/10/07 03:01:29;;;;;;;22.83;6.85;;;;;;;7.07;100.00;102291.47;1969438;28;20497;-76
2022/10/07 03:02:44;;;;;;;13.93;7.03;;;;;;;7.04;100.00;102286.28;1969641;28;20509;-66
2022/10/07 03:03:44;;;;;;;25.48;7.75;;;;;;;7.01;100.00;102296.69;1969456;28;20529;-67
2022/10/07 03:04:42;;;;;;;24.60;6.88;;;;;;;7.04;100.00;102291.47;1969424;28;20401;-65
2022/10/07 03:05:39;;;;;;;22.95;7.43;;;;;;;7.01;100.00;102294.94;1969408;28;20085;-67
2022/10/07 03:06:37;;;;;;;23.67;6.57;;;;;;;7.09;100.00;102287.13;1961030;28;20054;-65
2022/10/07 03:07:35;;;;;;;19.58;7.05;;;;;;;7.11;100.00;102287.97;1961021;28;20099;-68
2022/10/07 03:08:33;;;;;;;19.13;7.07;;;;;;;7.08;100.00;102290.59;1968166;28;20118;-68
2022/10/07 03:09:31;;;;;;;27.02;7.05;;;;;;;7.04;100.00;102289.75;1969230;28;20136;-66
2022/10/07 03:10:28;;;;;;;16.50;6.80;;;;;;;7.05;100.00;102288.03;1969299;28;20081;-68
2022/10/07 03:11:25;;;;;;;26.17;7.18;;;;;;;7.04;100.00;102291.47;1969299;28;20056;-68
2022/10/07 03:12:23;;;;;;;19.60;6.93;;;;;;;7.01;100.00;102291.50;1969453;28;20111;-66
2022/10/07 03:13:21;;;;;;;16.60;6.82;;;;;;;7.00;100.00;102289.75;1969337;28;20034;-66
2022/10/07 03:14:18;;;;;;;19.75;7.22;;;;;;;7.00;100.00;102289.75;1961140;28;20121;-66
2022/10/07 03:15:16;;;;;;;22.88;7.22;;;;;;;6.98;100.00;102287.16;1961111;28;20069;-65
2022/10/07 03:16:13;;;;;;;23.58;7.32;;;;;;;7.01;100.00;102281.13;1968580;28;20067;-77
2022/10/07 03:17:10;;;;;;;21.45;7.53;;;;;;;7.02;100.00;102278.50;1969461;28;20038;-74
2022/10/07 03:18:24;;;;;;;26.20;7.35;;;;;;;6.98;100.00;102275.94;1968966;28;20092;-76
2022/10/07 03:19:22;;;;;;;21.92;7.10;;;;;;;7.00;100.00;102272.47;1962376;28;20099;-78
2022/10/07 03:20:20;;;;;;;22.45;7.00;;;;;;;6.95;100.00;102272.47;1962530;28;20158;-77
2022/10/07 03:21:17;;;;;;;20.83;7.00;;;;;;;6.99;100.00;102272.47;1970026;28;20134;-67
2022/10/07 03:22:14;;;;;;;21.10;6.90;;;;;;;7.00;100.00;102279.38;1970734;28;20044;-66
2022/10/07 03:23:12;;;;;;;24.42;7.07;;;;;;;6.95;100.00;102277.66;1970814;28;20119;-65
2022/10/07 03:24:10;;;;;;;22.63;6.90;;;;;;;6.93;100.00;102271.63;1970626;28;20137;-66
2022/10/07 03:25:12;;;;;;;20.00;6.68;;;;;;;6.90;100.00;102274.22;1970788;28;20100;-66
2022/10/07 03:26:10;;;;;;;29.10;8.30;;;;;;;6.88;100.00;102270.75;1970503;28;20042;-66
2022/10/07 03:27:08;;;;;;;20.70;6.60;;;;;;;6.89;100.00;102272.50;1970808;28;20050;-67
2022/10/07 03:28:05;;;;;;;15.52;7.05;;;;;;;6.86;100.00;102267.31;1970624;28;20113;-67
2022/10/07 03:29:04;;;;;;;21.75;7.40;;;;;;;6.81;100.00;102266.50;1970613;28;20461;-65
2022/10/07 03:30:02;;;;;;;26.08;7.22;;;;;;;6.86;100.00;102267.31;1962247;28;20037;-68
2022/10/07 03:31:06;;;;;;;22.10;7.40;;;;;;;6.82;100.00;102266.47;1962428;28;20037;-67
2022/10/07 03:32:03;;;;;;;24.25;7.32;;;;;;;6.78;100.00;102269.94;1970600;28;20492;-66
2022/10/07 03:33:01;;;;;;;24.23;7.57;;;;;;;6.75;100.00;102269.09;1970625;28;20058;-66
2022/10/07 03:33:58;;;;;;;31.45;7.13;;;;;;;6.71;100.00;102268.25;1962329;28;20039;-77
2022/10/07 03:34:56;;;;;;;20.65;7.40;;;;;;;6.72;100.00;102259.59;1962396;28;20033;-75
2022/10/07 03:35:53;;;;;;;20.52;7.47;;;;;;;6.74;100.00;102263.03;1969844;28;20060;-75
2022/10/07 03:36:50;;;;;;;29.20;8.23;;;;;;;6.70;100.00;102261.31;1970597;28;20052;-76
2022/10/07 03:37:48;;;;;;;19.38;7.28;;;;;;;6.69;100.00;102265.66;1970775;28;20030;-78
2022/10/07 03:38:45;;;;;;;28.20;7.47;;;;;;;6.76;100.00;102265.63;1970641;28;20080;-75
2022/10/07 03:39:42;;;;;;;23.55;7.07;;;;;;;6.75;100.00;102263.91;1970703;28;20041;-77
2022/10/07 03:40:43;;;;;;;19.23;6.80;;;;;;;6.75;100.00;102258.72;1970606;28;20065;-71
2022/10/07 03:41:40;;;;;;;20.65;7.30;;;;;;;6.77;100.00;102259.59;1970771;28;20059;-73
2022/10/07 03:42:39;;;;;;;22.95;7.05;;;;;;;6.86;100.00;102254.34;1970622;28;20073;-77
2022/10/07 03:43:36;;;;;;;23.35;7.22;;;;;;;6.83;100.00;102254.34;1970568;28;20085;-74
2022/10/07 03:44:34;;;;;;;21.17;7.32;;;;;;;6.84;100.00;102253.47;1970519;28;20044;-73
2022/10/07 03:45:32;;;;;;;27.08;7.35;;;;;;;6.84;100.00;102253.47;1970657;28;20034;-76
2022/10/07 03:46:30;;;;;;;20.25;6.85;;;;;;;6.83;100.00;102256.94;1970537;28;20045;-77
2022/10/07 03:47:27;;;;;;;18.40;6.63;;;;;;;6.83;100.00;102254.34;1970735;28;20034;-76
2022/10/07 03:48:25;;;;;;;16.55;6.55;;;;;;;6.82;100.00;102250.03;1968422;28;20043;-76
2022/10/07 03:49:22;;;;;;;23.10;6.90;;;;;;;6.85;100.00;102252.63;1970679;28;20034;-67
2022/10/07 03:50:19;;;;;;;25.90;6.60;;;;;;;6.81;100.00;102245.72;1970595;28;20041;-65
2022/10/07 03:51:17;;;;;;;19.38;6.78;;;;;;;6.79;100.00;102243.13;1970486;28;20042;-70
2022/10/07 03:52:14;;;;;;;24.95;6.78;;;;;;;6.78;100.00;102243.97;1970579;28;20050;-67
2022/10/07 03:53:11;;;;;;;19.20;6.82;;;;;;;6.78;100.00;102243.16;1970530;28;20540;-64
2022/10/07 03:54:09;;;;;;;19.35;7.38;;;;;;;6.78;100.00;102248.34;1970585;28;20065;-69
2022/10/07 03:55:07;;;;;;;20.52;6.70;;;;;;;6.79;100.00;102250.94;1970478;28;20116;-66
2022/10/07 03:56:06;;;;;;;16.83;6.68;;;;;;;6.77;100.00;102249.22;1970434;28;20117;-67
2022/10/07 03:57:48;;;;;;;23.60;7.43;;;;;;;6.74;100.00;102246.63;1970402;28;20053;-67
2022/10/07 03:58:21;;;;;;;19.75;6.93;;;;;;;6.70;100.00;102246.63;1970238;28;20045;-68
2022/10/07 03:59:19;;;;;;;21.23;6.57;;;;;;;6.70;100.00;102241.44;1970544;28;20065;-67
2022/10/07 04:00:20;;;;;;;26.75;7.30;;;;;;;6.68;100.00;102243.16;1962165;28;20506;-66
2022/10/07 04:01:17;;;;;;;25.13;7.43;;;;;;;6.66;100.00;102242.31;1962096;28;20081;-67
2022/10/07 04:02:14;;;;;;;21.90;6.45;;;;;;;6.67;100.00;102246.63;1970033;28;20070;-67
2022/10/07 04:03:14;;;;;;;17.90;6.65;;;;;;;6.64;100.00;102241.44;1970481;28;20049;-68
2022/10/07 04:04:11;;;;;;;19.13;7.03;;;;;;;6.66;100.00;102238.84;1970554;28;20065;-64
2022/10/07 04:05:09;;;;;;;27.52;7.30;;;;;;;6.61;100.00;102241.47;1970414;28;20359;-67
2022/10/07 04:06:06;;;;;;;21.23;6.80;;;;;;;6.62;100.00;102243.19;1970360;28;20068;-67
2022/10/07 04:07:03;;;;;;;21.30;6.88;;;;;;;6.64;100.00;102244.03;1970487;28;20049;-66
2022/10/07 04:08:06;;;;;;;25.10;6.72;;;;;;;6.61;100.00;102246.66;1970370;28;20045;-66
2022/10/07 04:09:04;;;;;;;25.25;7.32;;;;;;;6.61;100.00;102244.06;1970332;28;20108;-67
2022/10/07 04:10:01;;;;;;;21.17;6.85;;;;;;;6.59;100.00;102243.19;1970330;28;20022;-66
2022/10/07 04:11:01;;;;;;;22.08;7.68;;;;;;;6.58;100.00;102244.06;1970356;28;20449;-69
2022/10/07 04:11:58;;;;;;;30.40;7.78;;;;;;;6.54;100.00;102242.38;1961951;28;20055;-67
2022/10/07 04:12:56;;;;;;;25.88;7.07;;;;;;;6.58;100.00;102246.66;1962103;28;20560;-67
2022/10/07 04:13:54;;;;;;;28.55;7.18;;;;;;;6.58;100.00;102246.66;1969644;28;20121;-77
2022/10/07 04:14:52;;;;;;;19.23;6.53;;;;;;;6.56;100.00;102232.81;1970377;28;20392;-76
2022/10/07 04:15:50;;;;;;;25.23;7.43;;;;;;;6.53;100.00;102238.00;1970336;28;20036;-76
2022/10/07 04:16:47;;;;;;;17.70;7.60;;;;;;;6.52;100.00;102239.78;1970389;28;20149;-76
2022/10/07 04:17:46;;;;;;;25.88;7.68;;;;;;;6.53;100.00;102232.84;1970543;28;20273;-76
2022/10/07 04:18:45;;;;;;;22.52;6.75;;;;;;;6.53;100.00;102232.84;1968149;28;20046;-77
2022/10/07 04:19:42;;;;;;;29.23;7.03;;;;;;;6.55;100.00;102233.69;1970364;28;20048;-78
2022/10/07 04:20:40;;;;;;;21.38;7.30;;;;;;;6.52;100.00;102238.91;1970268;28;20498;-77
2022/10/07 04:21:37;;;;;;;26.95;7.38;;;;;;;6.64;100.00;102230.22;1970407;28;20124;-75
2022/10/07 04:22:35;;;;;;;21.85;7.75;;;;;;;6.59;100.00;102232.81;1970229;28;20045;-76
2022/10/07 04:23:34;;;;;;;18.75;6.57;;;;;;;6.56;100.00;102230.22;1970434;28;20489;-77
2022/10/07 04:24:31;;;;;;;24.73;7.38;;;;;;;6.56;100.00;102235.41;1970227;28;20049;-78
2022/10/07 04:25:32;;;;;;;22.52;7.00;;;;;;;6.63;100.00;102229.34;1970359;28;20038;-77
2022/10/07 04:26:29;;;;;;;25.02;7.53;;;;;;;6.61;100.00;102231.09;1970052;28;20073;-78
2022/10/07 04:27:27;;;;;;;24.17;7.25;;;;;;;6.60;100.00;102224.16;1970404;28;20501;-76
2022/10/07 04:28:25;;;;;;;18.83;6.22;;;;;;;6.66;100.00;102231.06;1969648;28;20041;-76
2022/10/07 04:29:22;;;;;;;23.95;7.47;;;;;;;6.60;100.00;102234.53;1969608;28;20042;-77
2022/10/07 04:30:23;;;;;;;24.00;7.03;;;;;;;6.60;100.00;102229.34;1970248;28;20064;-75
2022/10/07 04:31:20;;;;;;;;;;;;;;;6.67;100.00;102230.22;1970717;28;20051;-78
2022/10/07 04:32:18;;;;;;;26.48;7.13;;;;;;;6.64;100.00;102233.66;1970296;28;19938;-77
2022/10/07 04:33:21;;;;;;;23.13;6.75;;;;;;;6.57;100.00;102219.84;1970201;28;20073;-75
2022/10/07 04:34:19;;;;;;;23.73;6.50;;;;;;;6.61;100.00;102228.50;1970221;28;20056;-76
2022/10/07 04:35:17;;;;;;;21.88;6.88;;;;;;;6.61;100.00;102235.41;1970204;28;20401;-76
2022/10/07 04:36:15;;;;;;;21.63;6.90;;;;;;;6.59;100.00;102227.63;1970303;28;20136;-75
2022/10/07 04:37:12;;;;;;;24.88;6.90;;;;;;;6.68;100.00;102226.75;1970200;28;20609;-77
2022/10/07 04:38:12;;;;;;;23.70;6.68;;;;;;;6.66;100.00;102229.34;1970299;28;20168;-75
2022/10/07 04:39:09;;;;;;;24.20;7.20;;;;;;;6.66;100.00;102233.66;1970109;28;20061;-75
2022/10/07 04:40:10;;;;;;;26.20;7.18;;;;;;;6.68;100.00;102227.59;1970235;28;20040;-76
2022/10/07 04:41:07;;;;;;;26.35;6.85;;;;;;;6.69;100.00;102229.34;1970185;28;20427;-76
2022/10/07 04:42:05;;;;;;;24.92;6.93;;;;;;;6.76;100.00;102229.28;1970126;28;20029;-75
2022/10/07 04:43:17;;;;;;;30.08;7.75;;;;;;;6.72;100.00;102227.59;1970153;28;20397;-76
2022/10/07 04:44:15;;;;;;;19.55;7.28;;;;;;;6.70;100.00;102233.66;1961917;28;20061;-75
2022/10/07 04:45:12;;;;;;;27.17;7.25;;;;;;;6.71;100.00;102229.34;1961787;28;20506;-76
2022/10/07 04:46:13;;;;;;;20.17;6.93;;;;;;;6.77;100.00;102236.25;1969184;28;20375;-77
2022/10/07 04:47:11;;;;;;;21.67;7.40;;;;;;;6.72;100.00;102233.66;1970041;28;20050;-76
2022/10/07 04:48:08;;;;;;;21.52;6.50;;;;;;;6.73;100.00;102234.50;1969490;28;20034;-78
2022/10/07 04:49:05;;;;;;;25.90;6.88;;;;;;;6.72;100.00;102228.47;1960181;28;20068;-75
2022/10/07 04:50:03;;;;;;;21.95;6.63;;;;;;;6.70;100.00;102225.88;1961937;28;20522;-75
2022/10/07 04:51:05;;;;;;;20.98;6.63;;;;;;;6.73;100.00;102229.31;1969396;28;20112;-74